sensor_id;sensor_type;location;lat;lon;timestamp;pressure;altitude;pressure_sealevel;temperature;humidity
27040;BME280;14589;51.578;7.306;2023-07-28T00:00:49;100040.31;;;17.04;100.00
27040;BME280;14589;51.578;7.306;2023-07-28T00:03:20;100047.50;;;17.05;100.00
27040;BME280;14589;51.578;7.306;2023-07-28T00:05:50;100046.03;;;17.09;100.00
27040;BME280;14589;51.578;7.306;2023-07-28T00:08:20;100054.47;;;17.08;100.00
27040;BME280;14589;51.578;7.306;2023-07-28T00:10:51;100047.50;;;17.05;100.00
27040;BME280;14589;51.578;7.306;2023-07-28T00:13:21;100053.63;;;17.07;100.00
27040;BME280;14589;51.578;7.306;2023-07-28T00:15:52;100049.84;;;17.08;100.00
27040;BME280;14589;51.578;7.306;2023-07-28T00:18:22;100041.41;;;17.03;100.00
27040;BME280;14589;51.578;7.306;2023-07-28T00:20:52;100056.34;;;17.07;100.00
27040;BME280;14589;51.578;7.306;2023-07-28T00:23:23;100058.44;;;17.05;100.00
27040;BME280;14589;51.578;7.306;2023-07-28T00:25:53;100058.25;;;17.07;100.00
27040;BME280;14589;51.578;7.306;2023-07-28T00:28:24;100049.38;;;17.05;100.00
27040;BME280;14589;51.578;7.306;2023-07-28T00:30:54;100045.59;;;17.06;100.00
27040;BME280;14589;51.578;7.306;2023-07-28T00:33:25;100039.91;;;17.07;100.00
27040;BME280;14589;51.578;7.306;2023-07-28T00:35:55;100044.94;;;17.04;100.00
27040;BME280;14589;51.578;7.306;2023-07-28T00:38:26;100043.72;;;17.06;100.00
27040;BME280;14589;51.578;7.306;2023-07-28T00:40:56;100036.97;;;17.02;100.00
27040;BME280;14589;51.578;7.306;2023-07-28T00:43:29;100040.13;;;17.06;100.00
27040;BME280;14589;51.578;7.306;2023-07-28T00:45:59;100039.28;;;17.05;100.00
27040;BME280;14589;51.578;7.306;2023-07-28T00:48:29;100036.53;;;17.05;100.00
27040;BME280;14589;51.578;7.306;2023-07-28T00:51:00;100037.38;;;17.06;100.00
27040;BME280;14589;51.578;7.306;2023-07-28T00:53:31;100037.59;;;17.04;100.00
27040;BME280;14589;51.578;7.306;2023-07-28T00:56:02;100024.50;;;16.99;100.00
27040;BME280;14589;51.578;7.306;2023-07-28T00:58:33;100033.19;;;17.03;100.00
27040;BME280;14589;51.578;7.306;2023-07-28T01:01:03;100042.22;;;17.04;100.00
27040;BME280;14589;51.578;7.306;2023-07-28T01:03:34;100037.81;;;17.03;100.00
27040;BME280;14589;51.578;7.306;2023-07-28T01:06:20;100037.81;;;17.03;100.00
27040;BME280;14589;51.578;7.306;2023-07-28T01:08:56;100025.56;;;16.98;100.00
27040;BME280;14589;51.578;7.306;2023-07-28T01:11:28;100043.50;;;17.01;100.00
27040;BME280;14589;51.578;7.306;2023-07-28T01:13:59;100046.22;;;17.01;100.00
27040;BME280;14589;51.578;7.306;2023-07-28T01:16:30;100040.75;;;17.01;100.00
27040;BME280;14589;51.578;7.306;2023-07-28T01:19:00;100040.94;;;16.99;100.00
27040;BME280;14589;51.578;7.306;2023-07-28T01:21:31;100041.59;;;17.02;100.00
27040;BME280;14589;51.578;7.306;2023-07-28T01:24:15;100039.72;;;17.02;100.00
27040;BME280;14589;51.578;7.306;2023-07-28T01:26:50;100036.50;;;16.98;100.00
27040;BME280;14589;51.578;7.306;2023-07-28T01:29:22;100043.50;;;17.01;100.00
27040;BME280;14589;51.578;7.306;2023-07-28T01:31:52;100037.38;;;16.99;100.00
27040;BME280;14589;51.578;7.306;2023-07-28T01:34:23;100039.91;;;17.01;100.00
27040;BME280;14589;51.578;7.306;2023-07-28T01:36:53;100034.44;;;17.01;100.00
27040;BME280;14589;51.578;7.306;2023-07-28T01:39:23;100040.75;;;17.01;100.00
27040;BME280;14589;51.578;7.306;2023-07-28T01:41:54;100035.66;;;16.98;100.00
27040;BME280;14589;51.578;7.306;2023-07-28T01:44:24;100039.25;;;16.98;100.00
27040;BME280;14589;51.578;7.306;2023-07-28T01:46:55;100044.34;;;17.02;100.00
27040;BME280;14589;51.578;7.306;2023-07-28T01:49:25;100052.56;;;17.02;100.00
27040;BME280;14589;51.578;7.306;2023-07-28T01:51:55;100043.69;;;16.99;100.00
27040;BME280;14589;51.578;7.306;2023-07-28T01:54:26;100052.75;;;17.00;100.00
27040;BME280;14589;51.578;7.306;2023-07-28T01:56:56;100043.28;;;16.96;100.00
27040;BME280;14589;51.578;7.306;2023-07-28T01:59:26;100056.34;;;17.01;100.00
27040;BME280;14589;51.578;7.306;2023-07-28T02:01:57;100054.44;;;17.01;100.00
27040;BME280;14589;51.578;7.306;2023-07-28T02:04:28;100058.44;;;16.98;100.00
27040;BME280;14589;51.578;7.306;2023-07-28T02:06:59;100056.53;;;16.99;100.00
27040;BME280;14589;51.578;7.306;2023-07-28T02:09:29;100060.78;;;17.02;100.00
27040;BME280;14589;51.578;7.306;2023-07-28T02:11:59;100052.94;;;16.98;100.00
27040;BME280;14589;51.578;7.306;2023-07-28T02:14:30;100053.81;;;16.99;100.00
27040;BME280;14589;51.578;7.306;2023-07-28T02:17:00;100051.91;;;16.99;100.00
27040;BME280;14589;51.578;7.306;2023-07-28T02:19:30;100058.88;;;17.02;100.00
27040;BME280;14589;51.578;7.306;2023-07-28T02:22:01;100055.28;;;17.02;100.00
27040;BME280;14589;51.578;7.306;2023-07-28T02:24:31;100051.50;;;17.03;100.00
27040;BME280;14589;51.578;7.306;2023-07-28T02:27:02;100056.34;;;17.01;100.00
27040;BME280;14589;51.578;7.306;2023-07-28T02:29:32;100058.88;;;17.02;100.00
27040;BME280;14589;51.578;7.306;2023-07-28T02:32:04;100063.50;;;17.02;100.00
27040;BME280;14589;51.578;7.306;2023-07-28T02:34:34;100049.59;;;16.96;100.00
27040;BME280;14589;51.578;7.306;2023-07-28T02:37:05;100054.84;;;16.98;100.00
27040;BME280;14589;51.578;7.306;2023-07-28T02:39:35;100052.09;;;16.98;100.00
27040;BME280;14589;51.578;7.306;2023-07-28T02:42:06;100055.69;;;16.98;100.00
27040;BME280;14589;51.578;7.306;2023-07-28T02:44:36;100062.66;;;17.01;100.00
27040;BME280;14589;51.578;7.306;2023-07-28T02:47:07;100063.72;;;17.00;100.00
27040;BME280;14589;51.578;7.306;2023-07-28T02:49:40;100071.72;;;17.02;100.00
27040;BME280;14589;51.578;7.306;2023-07-28T02:52:11;100064.75;;;16.99;100.00
27040;BME280;14589;51.578;7.306;2023-07-28T02:54:41;100072.56;;;17.02;100.00
27040;BME280;14589;51.578;7.306;2023-07-28T02:57:12;100074.47;;;17.02;100.00
27040;BME280;14589;51.578;7.306;2023-07-28T02:59:46;100079.50;;;16.98;100.00
27040;BME280;14589;51.578;7.306;2023-07-28T03:02:17;100074.66;;;17.00;100.00
27040;BME280;14589;51.578;7.306;2023-07-28T03:04:47;100076.56;;;16.99;100.00
27040;BME280;14589;51.578;7.306;2023-07-28T03:07:20;100082.50;;;17.03;100.00
27040;BME280;14589;51.578;7.306;2023-07-28T03:09:58;100081.00;;;17.01;100.00
27040;BME280;14589;51.578;7.306;2023-07-28T03:12:29;100086.88;;;17.04;100.00
27040;BME280;14589;51.578;7.306;2023-07-28T03:14:59;100090.47;;;17.05;100.00
27040;BME280;14589;51.578;7.306;2023-07-28T03:17:30;100085.63;;;17.00;100.00
27040;BME280;14589;51.578;7.306;2023-07-28T03:20:00;100084.16;;;17.04;100.00
27040;BME280;14589;51.578;7.306;2023-07-28T03:22:31;100085.81;;;16.98;100.00
27040;BME280;14589;51.578;7.306;2023-07-28T03:25:02;100086.47;;;17.01;100.00
27040;BME280;14589;51.578;7.306;2023-07-28T03:27:33;100085.00;;;17.05;100.00
27040;BME280;14589;51.578;7.306;2023-07-28T03:30:04;100090.47;;;17.05;100.00
27040;BME280;14589;51.578;7.306;2023-07-28T03:32:37;100093.44;;;17.03;100.00
27040;BME280;14589;51.578;7.306;2023-07-28T03:35:08;100086.28;;;17.02;100.00
27040;BME280;14589;51.578;7.306;2023-07-28T03:37:47;100096.81;;;17.05;100.00
27040;BME280;14589;51.578;7.306;2023-07-28T03:40:18;100089.63;;;17.04;100.00
27040;BME280;14589;51.578;7.306;2023-07-28T03:42:53;100083.53;;;17.02;100.00
27040;BME280;14589;51.578;7.306;2023-07-28T03:45:23;100087.97;;;17.03;100.00
27040;BME280;14589;51.578;7.306;2023-07-28T03:47:54;100095.34;;;17.03;100.00
27040;BME280;14589;51.578;7.306;2023-07-28T03:50:24;100098.09;;;17.03;100.00
27040;BME280;14589;51.578;7.306;2023-07-28T03:52:56;100085.44;;;17.02;100.00
27040;BME280;14589;51.578;7.306;2023-07-28T03:55:27;100095.13;;;17.04;100.00
27040;BME280;14589;51.578;7.306;2023-07-28T03:57:57;100087.97;;;17.03;100.00
27040;BME280;14589;51.578;7.306;2023-07-28T04:00:27;100089.88;;;17.03;100.00
27040;BME280;14589;51.578;7.306;2023-07-28T04:02:58;100090.47;;;17.05;100.00
27040;BME280;14589;51.578;7.306;2023-07-28T04:05:28;100099.53;;;17.05;100.00
27040;BME280;14589;51.578;7.306;2023-07-28T04:07:58;100109.06;;;17.09;100.00
27040;BME280;14589;51.578;7.306;2023-07-28T04:10:29;100105.69;;;17.07;100.00
27040;BME280;14589;51.578;7.306;2023-07-28T04:12:59;100108.63;;;17.06;100.00
27040;BME280;14589;51.578;7.306;2023-07-28T04:15:30;100110.09;;;17.08;100.00
27040;BME280;14589;51.578;7.306;2023-07-28T04:18:00;100109.88;;;17.10;100.00
27040;BME280;14589;51.578;7.306;2023-07-28T04:20:30;100107.38;;;17.08;100.00
27040;BME280;14589;51.578;7.306;2023-07-28T04:23:01;100108.44;;;17.14;100.00
27040;BME280;14589;51.578;7.306;2023-07-28T04:25:34;100104.19;;;17.11;100.00
27040;BME280;14589;51.578;7.306;2023-07-28T04:28:05;100107.78;;;17.12;100.00
27040;BME280;14589;51.578;7.306;2023-07-28T04:30:36;100106.53;;;17.14;100.00
27040;BME280;14589;51.578;7.306;2023-07-28T04:33:06;100103.56;;;17.16;100.00
27040;BME280;14589;51.578;7.306;2023-07-28T04:35:41;100092.41;;;17.17;100.00
27040;BME280;14589;51.578;7.306;2023-07-28T04:38:18;100090.72;;;17.16;100.00
27040;BME280;14589;51.578;7.306;2023-07-28T04:40:57;100089.06;;;17.15;100.00
27040;BME280;14589;51.578;7.306;2023-07-28T04:43:42;100101.06;;;17.14;100.00
27040;BME280;14589;51.578;7.306;2023-07-28T04:46:12;100096.44;;;17.15;100.00
27040;BME280;14589;51.578;7.306;2023-07-28T04:48:43;100101.25;;;17.13;100.00
27040;BME280;14589;51.578;7.306;2023-07-28T04:51:34;100108.66;;;17.19;100.00
27040;BME280;14589;51.578;7.306;2023-07-28T04:54:22;100114.56;;;17.22;100.00
27040;BME280;14589;51.578;7.306;2023-07-28T04:56:53;100121.72;;;17.23;100.00
27040;BME280;14589;51.578;7.306;2023-07-28T04:59:28;100126.34;;;17.23;100.00
27040;BME280;14589;51.578;7.306;2023-07-28T05:01:58;100130.59;;;17.25;100.00
27040;BME280;14589;51.578;7.306;2023-07-28T05:04:29;100130.81;;;17.30;100.00
27040;BME280;14589;51.578;7.306;2023-07-28T05:06:59;100131.47;;;17.32;100.00
27040;BME280;14589;51.578;7.306;2023-07-28T05:09:30;100133.16;;;17.33;100.00
27040;BME280;14589;51.578;7.306;2023-07-28T05:12:00;100131.25;;;17.34;100.00
27040;BME280;14589;51.578;7.306;2023-07-28T05:14:36;100126.59;;;17.34;100.00
27040;BME280;14589;51.578;7.306;2023-07-28T05:17:07;100128.53;;;17.34;100.00
27040;BME280;14589;51.578;7.306;2023-07-28T05:19:47;100128.94;;;17.37;100.00
27040;BME280;14589;51.578;7.306;2023-07-28T05:22:36;100132.75;;;17.43;100.00
27040;BME280;14589;51.578;7.306;2023-07-28T05:25:06;100141.63;;;17.45;100.00
27040;BME280;14589;51.578;7.306;2023-07-28T05:27:40;100132.09;;;17.48;100.00
27040;BME280;14589;51.578;7.306;2023-07-28T05:30:11;100137.84;;;17.53;100.00
27040;BME280;14589;51.578;7.306;2023-07-28T05:32:41;100128.13;;;17.57;100.00
27040;BME280;14589;51.578;7.306;2023-07-28T05:35:24;100131.53;;;17.59;100.00
27040;BME280;14589;51.578;7.306;2023-07-28T05:37:54;100137.44;;;17.62;100.00
27040;BME280;14589;51.578;7.306;2023-07-28T05:40:25;100146.09;;;17.66;100.00
27040;BME280;14589;51.578;7.306;2023-07-28T05:42:55;100142.94;;;17.69;100.00
27040;BME280;14589;51.578;7.306;2023-07-28T05:45:26;100145.88;;;17.67;100.00
27040;BME280;14589;51.578;7.306;2023-07-28T05:47:56;100149.69;;;17.73;100.00
27040;BME280;14589;51.578;7.306;2023-07-28T05:50:26;100145.06;;;17.73;100.00
27040;BME280;14589;51.578;7.306;2023-07-28T05:52:57;100154.13;;;17.81;100.00
27040;BME280;14589;51.578;7.306;2023-07-28T05:55:27;100156.47;;;17.84;100.00
27040;BME280;14589;51.578;7.306;2023-07-28T05:57:58;100151.19;;;17.89;100.00
27040;BME280;14589;51.578;7.306;2023-07-28T06:00:28;100158.34;;;17.96;100.00
27040;BME280;14589;51.578;7.306;2023-07-28T06:03:00;100156.44;;;17.97;100.00
27040;BME280;14589;51.578;7.306;2023-07-28T06:05:50;100167.44;;;18.03;100.00
27040;BME280;14589;51.578;7.306;2023-07-28T06:08:22;100154.34;;;18.05;100.00
27040;BME280;14589;51.578;7.306;2023-07-28T06:10:53;100166.38;;;18.17;100.00
27040;BME280;14589;51.578;7.306;2023-07-28T06:13:23;100172.91;;;18.36;100.00
27040;BME280;14589;51.578;7.306;2023-07-28T06:15:53;100181.16;;;18.56;100.00
27040;BME280;14589;51.578;7.306;2023-07-28T06:18:28;100177.09;;;18.65;100.00
27040;BME280;14589;51.578;7.306;2023-07-28T06:21:09;100182.78;;;18.70;100.00
27040;BME280;14589;51.578;7.306;2023-07-28T06:23:39;100184.50;;;18.71;100.00
27040;BME280;14589;51.578;7.306;2023-07-28T06:26:10;100182.59;;;18.65;100.00
27040;BME280;14589;51.578;7.306;2023-07-28T06:28:44;100194.66;;;18.64;100.00
27040;BME280;14589;51.578;7.306;2023-07-28T06:31:15;100184.75;;;18.56;100.00
27040;BME280;14589;51.578;7.306;2023-07-28T06:33:47;100195.09;;;18.61;100.00
27040;BME280;14589;51.578;7.306;2023-07-28T06:36:17;100198.25;;;18.58;100.00
27040;BME280;14589;51.578;7.306;2023-07-28T06:38:48;100195.28;;;18.59;100.00
27040;BME280;14589;51.578;7.306;2023-07-28T06:41:19;100194.66;;;18.51;100.00
27040;BME280;14589;51.578;7.306;2023-07-28T06:43:50;100192.16;;;18.56;100.00
27040;BME280;14589;51.578;7.306;2023-07-28T06:46:20;100204.81;;;18.57;100.00
27040;BME280;14589;51.578;7.306;2023-07-28T06:48:52;100205.00;;;18.69;100.00
27040;BME280;14589;51.578;7.306;2023-07-28T06:51:24;100214.91;;;18.76;100.00
27040;BME280;14589;51.578;7.306;2023-07-28T06:53:54;100202.88;;;18.71;100.00
27040;BME280;14589;51.578;7.306;2023-07-28T06:56:25;100220.38;;;18.89;100.00
27040;BME280;14589;51.578;7.306;2023-07-28T06:58:55;100218.25;;;18.98;100.00
27040;BME280;14589;51.578;7.306;2023-07-28T07:01:26;100219.47;;;19.09;100.00
27040;BME280;14589;51.578;7.306;2023-07-28T07:03:56;100224.09;;;19.15;100.00
27040;BME280;14589;51.578;7.306;2023-07-28T07:06:27;100239.13;;;19.12;100.00
27040;BME280;14589;51.578;7.306;2023-07-28T07:08:57;100228.13;;;19.19;100.00
27040;BME280;14589;51.578;7.306;2023-07-28T07:11:27;100229.75;;;19.33;100.00
27040;BME280;14589;51.578;7.306;2023-07-28T07:13:58;100242.41;;;19.47;100.00
27040;BME280;14589;51.578;7.306;2023-07-28T07:16:28;100237.31;;;19.51;100.00
27040;BME280;14589;51.578;7.306;2023-07-28T07:18:59;100237.09;;;19.52;100.00
27040;BME280;14589;51.578;7.306;2023-07-28T07:21:30;100234.38;;;19.32;100.00
27040;BME280;14589;51.578;7.306;2023-07-28T07:24:02;100237.97;;;19.46;100.00
27040;BME280;14589;51.578;7.306;2023-07-28T07:26:33;100231.81;;;19.51;100.00
27040;BME280;14589;51.578;7.306;2023-07-28T07:29:03;100238.94;;;19.65;100.00
27040;BME280;14589;51.578;7.306;2023-07-28T07:31:34;100237.41;;;19.69;100.00
27040;BME280;14589;51.578;7.306;2023-07-28T07:34:04;100239.50;;;19.80;100.00
27040;BME280;14589;51.578;7.306;2023-07-28T07:36:34;100246.19;;;19.91;100.00
27040;BME280;14589;51.578;7.306;2023-07-28T07:39:05;100234.72;;;19.94;100.00
27040;BME280;14589;51.578;7.306;2023-07-28T07:41:36;100239.41;;;19.93;100.00
27040;BME280;14589;51.578;7.306;2023-07-28T07:44:06;100257.38;;;19.96;100.00
27040;BME280;14589;51.578;7.306;2023-07-28T07:46:36;100257.97;;;20.04;100.00
27040;BME280;14589;51.578;7.306;2023-07-28T07:49:07;100253.91;;;20.07;100.00
27040;BME280;14589;51.578;7.306;2023-07-28T07:51:38;100258.34;;;20.08;100.00
27040;BME280;14589;51.578;7.306;2023-07-28T07:54:08;100256.09;;;20.30;100.00
27040;BME280;14589;51.578;7.306;2023-07-28T07:56:38;100255.44;;;20.34;100.00
27040;BME280;14589;51.578;7.306;2023-07-28T07:59:09;100255.44;;;20.34;100.00
27040;BME280;14589;51.578;7.306;2023-07-28T08:01:39;100257.56;;;20.32;100.00
27040;BME280;14589;51.578;7.306;2023-07-28T08:04:10;100246.28;;;20.40;100.00
27040;BME280;14589;51.578;7.306;2023-07-28T08:06:41;100241.84;;;20.39;100.00
27040;BME280;14589;51.578;7.306;2023-07-28T08:09:12;100244.31;;;20.47;100.00
27040;BME280;14589;51.578;7.306;2023-07-28T08:11:42;100252.72;;;20.28;100.00
27040;BME280;14589;51.578;7.306;2023-07-28T08:14:13;100258.25;;;20.52;100.00
27040;BME280;14589;51.578;7.306;2023-07-28T08:16:43;100241.09;;;20.50;100.00
27040;BME280;14589;51.578;7.306;2023-07-28T08:19:14;100262.97;;;20.70;100.00
27040;BME280;14589;51.578;7.306;2023-07-28T08:21:44;100260.53;;;20.80;100.00
27040;BME280;14589;51.578;7.306;2023-07-28T08:24:14;100252.13;;;21.12;100.00
27040;BME280;14589;51.578;7.306;2023-07-28T08:26:46;100257.88;;;21.17;100.00
27040;BME280;14589;51.578;7.306;2023-07-28T08:29:16;100262.78;;;21.81;100.00
27040;BME280;14589;51.578;7.306;2023-07-28T08:31:46;100267.94;;;22.07;100.00
27040;BME280;14589;51.578;7.306;2023-07-28T08:34:17;100263.00;;;22.39;98.18
27040;BME280;14589;51.578;7.306;2023-07-28T08:36:47;100267.19;;;22.42;94.59
27040;BME280;14589;51.578;7.306;2023-07-28T08:39:18;100264.22;;;22.55;94.69
27040;BME280;14589;51.578;7.306;2023-07-28T08:41:57;100274.28;;;22.38;91.06
27040;BME280;14589;51.578;7.306;2023-07-28T08:44:30;100264.78;;;22.34;92.58
27040;BME280;14589;51.578;7.306;2023-07-28T08:47:03;100272.44;;;22.20;93.52
27040;BME280;14589;51.578;7.306;2023-07-28T08:49:34;100270.63;;;22.14;92.21
27040;BME280;14589;51.578;7.306;2023-07-28T08:52:06;100284.22;;;21.97;94.81
27040;BME280;14589;51.578;7.306;2023-07-28T08:54:37;100286.44;;;22.07;93.11
27040;BME280;14589;51.578;7.306;2023-07-28T08:57:09;100290.81;;;22.14;92.31
27040;BME280;14589;51.578;7.306;2023-07-28T08:59:39;100295.09;;;21.92;91.18
27040;BME280;14589;51.578;7.306;2023-07-28T09:02:12;100290.25;;;21.76;93.85
27040;BME280;14589;51.578;7.306;2023-07-28T09:04:44;100304.13;;;21.69;94.36
27040;BME280;14589;51.578;7.306;2023-07-28T09:07:15;100290.38;;;21.81;94.55
27040;BME280;14589;51.578;7.306;2023-07-28T09:09:46;100296.78;;;21.93;93.07
27040;BME280;14589;51.578;7.306;2023-07-28T09:12:16;100285.34;;;21.78;94.11
27040;BME280;14589;51.578;7.306;2023-07-28T09:14:46;100284.63;;;22.01;92.85
27040;BME280;14589;51.578;7.306;2023-07-28T09:17:17;100296.72;;;22.30;92.94
27040;BME280;14589;51.578;7.306;2023-07-28T09:19:52;100295.59;;;22.60;91.52
27040;BME280;14589;51.578;7.306;2023-07-28T09:22:23;100293.47;;;22.97;89.53
27040;BME280;14589;51.578;7.306;2023-07-28T09:24:54;100293.63;;;23.14;86.59
27040;BME280;14589;51.578;7.306;2023-07-28T09:27:27;100290.94;;;23.31;85.88
27040;BME280;14589;51.578;7.306;2023-07-28T09:29:59;100294.66;;;23.36;84.41
27040;BME280;14589;51.578;7.306;2023-07-28T09:32:31;100301.63;;;23.62;83.23
27040;BME280;14589;51.578;7.306;2023-07-28T09:35:07;100306.19;;;23.68;82.84
27040;BME280;14589;51.578;7.306;2023-07-28T09:37:41;100296.78;;;23.98;80.96
27040;BME280;14589;51.578;7.306;2023-07-28T09:40:13;100300.13;;;23.71;81.15
27040;BME280;14589;51.578;7.306;2023-07-28T09:42:45;100287.88;;;23.96;80.36
27040;BME280;14589;51.578;7.306;2023-07-28T09:45:19;100299.09;;;24.29;79.86
27040;BME280;14589;51.578;7.306;2023-07-28T09:47:53;100290.22;;;24.44;77.27
27040;BME280;14589;51.578;7.306;2023-07-28T09:50:27;100285.28;;;24.63;76.27
27040;BME280;14589;51.578;7.306;2023-07-28T09:53:02;100289.09;;;24.28;77.71
27040;BME280;14589;51.578;7.306;2023-07-28T09:55:33;100290.72;;;24.57;78.84
27040;BME280;14589;51.578;7.306;2023-07-28T09:58:04;100279.09;;;25.27;76.36
27040;BME280;14589;51.578;7.306;2023-07-28T10:00:36;100283.06;;;25.53;75.28
27040;BME280;14589;51.578;7.306;2023-07-28T10:03:08;100279.91;;;25.66;72.28
27040;BME280;14589;51.578;7.306;2023-07-28T10:05:39;100290.41;;;26.08;72.78
27040;BME280;14589;51.578;7.306;2023-07-28T10:08:10;100283.50;;;26.10;71.62
27040;BME280;14589;51.578;7.306;2023-07-28T10:10:42;100274.97;;;26.49;68.16
27040;BME280;14589;51.578;7.306;2023-07-28T10:13:20;100290.72;;;26.97;67.51
27040;BME280;14589;51.578;7.306;2023-07-28T10:15:51;100279.25;;;27.35;65.68
27040;BME280;14589;51.578;7.306;2023-07-28T10:18:21;100288.97;;;27.75;64.55
27040;BME280;14589;51.578;7.306;2023-07-28T10:20:52;100291.00;;;27.95;62.64
27040;BME280;14589;51.578;7.306;2023-07-28T10:23:24;100282.38;;;26.65;64.75
27040;BME280;14589;51.578;7.306;2023-07-28T10:25:57;100286.94;;;26.81;64.81
27040;BME280;14589;51.578;7.306;2023-07-28T10:28:35;100294.59;;;26.91;64.90
27040;BME280;14589;51.578;7.306;2023-07-28T10:31:11;100287.66;;;26.98;65.40
27040;BME280;14589;51.578;7.306;2023-07-28T10:33:45;100295.56;;;27.17;62.32
27040;BME280;14589;51.578;7.306;2023-07-28T10:39:00;100299.84;;;26.92;64.42
27040;BME280;14589;51.578;7.306;2023-07-28T10:41:34;100298.63;;;26.78;64.85
27040;BME280;14589;51.578;7.306;2023-07-28T10:44:06;100301.03;;;26.70;65.71
27040;BME280;14589;51.578;7.306;2023-07-28T10:46:37;100303.69;;;26.86;64.46
27040;BME280;14589;51.578;7.306;2023-07-28T10:49:08;100299.97;;;26.76;64.06
27040;BME280;14589;51.578;7.306;2023-07-28T10:51:39;100300.97;;;26.60;65.45
27040;BME280;14589;51.578;7.306;2023-07-28T10:54:09;100307.16;;;25.91;69.09
27040;BME280;14589;51.578;7.306;2023-07-28T10:56:39;100306.63;;;26.43;67.13
27040;BME280;14589;51.578;7.306;2023-07-28T10:59:10;100313.91;;;26.49;66.39
27040;BME280;14589;51.578;7.306;2023-07-28T11:01:41;100306.44;;;26.01;68.18
27040;BME280;14589;51.578;7.306;2023-07-28T11:04:16;100302.81;;;26.00;67.54
27040;BME280;14589;51.578;7.306;2023-07-28T11:06:49;100308.44;;;26.05;67.28
27040;BME280;14589;51.578;7.306;2023-07-28T11:09:22;100311.34;;;26.15;66.61
27040;BME280;14589;51.578;7.306;2023-07-28T11:11:53;100302.94;;;26.10;66.14
27040;BME280;14589;51.578;7.306;2023-07-28T11:14:24;100304.34;;;26.13;66.25
27040;BME280;14589;51.578;7.306;2023-07-28T11:16:55;100307.47;;;26.16;66.48
27040;BME280;14589;51.578;7.306;2023-07-28T11:19:26;100305.78;;;26.15;65.60
27040;BME280;14589;51.578;7.306;2023-07-28T11:21:56;100305.59;;;25.18;70.14
27040;BME280;14589;51.578;7.306;2023-07-28T11:24:28;100304.75;;;26.00;67.52
27040;BME280;14589;51.578;7.306;2023-07-28T11:26:58;100309.66;;;26.14;65.74
27040;BME280;14589;51.578;7.306;2023-07-28T11:29:29;100318.44;;;25.80;67.46
27040;BME280;14589;51.578;7.306;2023-07-28T11:32:00;100310.38;;;26.27;66.21
27040;BME280;14589;51.578;7.306;2023-07-28T11:34:36;100303.84;;;25.94;66.49
27040;BME280;14589;51.578;7.306;2023-07-28T11:37:07;100309.94;;;26.40;65.42
27040;BME280;14589;51.578;7.306;2023-07-28T11:39:39;100305.19;;;26.13;65.02
27040;BME280;14589;51.578;7.306;2023-07-28T11:42:11;100319.63;;;26.64;63.56
27040;BME280;14589;51.578;7.306;2023-07-28T11:44:41;100309.75;;;26.78;63.72
27040;BME280;14589;51.578;7.306;2023-07-28T11:47:17;100314.50;;;26.83;63.01
27040;BME280;14589;51.578;7.306;2023-07-28T11:49:48;100304.72;;;27.07;62.44
27040;BME280;14589;51.578;7.306;2023-07-28T11:52:19;100313.44;;;27.21;60.28
27040;BME280;14589;51.578;7.306;2023-07-28T11:54:51;100317.72;;;27.38;61.97
27040;BME280;14589;51.578;7.306;2023-07-28T11:57:24;100310.41;;;27.74;60.23
27040;BME280;14589;51.578;7.306;2023-07-28T11:59:54;100317.16;;;27.89;58.42
27040;BME280;14589;51.578;7.306;2023-07-28T12:02:26;100310.72;;;28.76;55.76
27040;BME280;14589;51.578;7.306;2023-07-28T12:04:57;100305.94;;;28.96;54.50
27040;BME280;14589;51.578;7.306;2023-07-28T12:07:31;100312.91;;;28.69;55.75
27040;BME280;14589;51.578;7.306;2023-07-28T12:10:03;100308.97;;;28.60;54.38
27040;BME280;14589;51.578;7.306;2023-07-28T12:12:41;100315.13;;;28.56;54.49
27040;BME280;14589;51.578;7.306;2023-07-28T12:15:40;100299.56;;;28.76;55.05
27040;BME280;14589;51.578;7.306;2023-07-28T12:18:15;100298.97;;;28.74;54.88
27040;BME280;14589;51.578;7.306;2023-07-28T12:20:47;100293.63;;;28.52;54.41
27040;BME280;14589;51.578;7.306;2023-07-28T12:23:20;100297.25;;;28.37;55.20
27040;BME280;14589;51.578;7.306;2023-07-28T12:25:51;100296.06;;;28.13;56.25
27040;BME280;14589;51.578;7.306;2023-07-28T12:28:22;100302.63;;;27.76;58.31
27040;BME280;14589;51.578;7.306;2023-07-28T12:30:53;100303.72;;;27.70;59.36
27040;BME280;14589;51.578;7.306;2023-07-28T12:33:26;100300.66;;;27.25;61.83
27040;BME280;14589;51.578;7.306;2023-07-28T12:35:56;100303.03;;;26.74;61.96
27040;BME280;14589;51.578;7.306;2023-07-28T12:38:26;100305.63;;;26.54;61.42
27040;BME280;14589;51.578;7.306;2023-07-28T12:40:57;100295.44;;;26.65;61.21
27040;BME280;14589;51.578;7.306;2023-07-28T12:43:27;100303.38;;;26.83;60.53
27040;BME280;14589;51.578;7.306;2023-07-28T12:45:59;100299.78;;;26.55;63.20
27040;BME280;14589;51.578;7.306;2023-07-28T12:48:29;100303.88;;;27.07;62.33
27040;BME280;14589;51.578;7.306;2023-07-28T12:50:59;100303.72;;;27.75;59.16
27040;BME280;14589;51.578;7.306;2023-07-28T12:53:30;100304.47;;;28.28;59.34
27040;BME280;14589;51.578;7.306;2023-07-28T12:56:00;100308.16;;;28.54;55.35
27040;BME280;14589;51.578;7.306;2023-07-28T12:58:31;100309.28;;;29.04;54.62
27040;BME280;14589;51.578;7.306;2023-07-28T13:01:03;100293.53;;;29.58;53.63
27040;BME280;14589;51.578;7.306;2023-07-28T13:03:34;100310.41;;;30.07;53.08
27040;BME280;14589;51.578;7.306;2023-07-28T13:06:05;100297.25;;;30.08;54.33
27040;BME280;14589;51.578;7.306;2023-07-28T13:08:35;100299.50;;;29.11;54.16